Time;durP1;ratioP1;P1;durP2;ratioP2;P2;SDS_P1;SDS_P2;PMS_P1;PMS_P2;Temp;Humidity;BMP_temperature;BMP_pressure;BME280_temperature;BME280_humidity;BME280_pressure;Samples;Min_cycle;Max_cycle;Signal;HPM_P1;HPM_P2
2022/10/20 00:01:14;;;;;;;2.53;1.30;;;8.80;99.90;;;;;;4970330;28;20034;-78
2022/10/20 00:03:41;;;;;;;5.22;1.50;;;8.80;99.90;;;;;;4991456;28;20053;-79
2022/10/20 00:06:12;;;;;;;3.72;1.30;;;8.80;99.90;;;;;;4976218;28;20116;-78
2022/10/20 00:08:39;;;;;;;3.15;1.52;;;8.80;99.90;;;;;;4988287;28;20639;-79
2022/10/20 00:11:07;;;;;;;4.72;1.40;;;8.80;99.90;;;;;;4987900;28;20085;-79
2022/10/20 00:13:34;;;;;;;5.18;1.85;;;8.70;99.90;;;;;;4989145;28;20105;-78
2022/10/20 00:16:01;;;;;;;4.50;1.60;;;8.70;99.90;;;;;;4977997;28;20483;-80
2022/10/20 00:18:26;;;;;;;3.17;1.38;;;8.80;99.90;;;;;;4996810;28;20058;-81
2022/10/20 00:20:53;;;;;;;2.85;1.67;;;8.70;99.90;;;;;;4998802;28;20081;-79
2022/10/20 00:23:20;;;;;;;4.25;1.50;;;8.70;99.90;;;;;;4984202;28;20034;-79
2022/10/20 00:25:47;;;;;;;2.00;1.20;;;8.70;99.90;;;;;;4996362;28;20027;-79
2022/10/20 00:28:14;;;;;;;4.53;1.85;;;8.70;99.90;;;;;;5002983;28;20031;-79
2022/10/20 00:30:40;;;;;;;3.55;1.50;;;8.70;99.90;;;;;;5004865;28;20023;-80
2022/10/20 00:33:07;;;;;;;4.18;1.80;;;8.70;99.90;;;;;;5000062;28;20077;-79
2022/10/20 00:35:38;;;;;;;2.78;1.40;;;8.70;99.90;;;;;;4983208;28;20026;-80
2022/10/20 00:38:03;;;;;;;3.35;1.85;;;8.70;99.90;;;;;;4979671;28;20027;-80
2022/10/20 00:40:30;;;;;;;2.50;1.10;;;8.60;99.90;;;;;;4962131;28;20026;-80
2022/10/20 00:42:57;;;;;;;3.53;1.63;;;8.60;99.90;;;;;;4980523;28;20058;-80
2022/10/20 00:45:24;;;;;;;4.32;1.35;;;8.70;99.90;;;;;;5003770;28;20516;-77
2022/10/20 00:48:01;;;;;;;3.35;1.63;;;8.60;99.90;;;;;;4996522;28;20141;-79
2022/10/20 00:50:30;;;;;;;3.67;1.50;;;8.70;99.90;;;;;;4978919;28;20030;-80
2022/10/20 00:52:58;;;;;;;3.88;1.20;;;8.60;99.90;;;;;;4986650;28;20030;-79
2022/10/20 00:55:30;;;;;;;2.80;1.40;;;8.70;99.90;;;;;;4995003;28;20035;-80
2022/10/20 00:58:01;;;;;;;4.07;2.00;;;8.70;99.90;;;;;;4994850;28;20054;-79
2022/10/20 01:00:28;;;;;;;4.05;1.45;;;8.70;99.90;;;;;;4995938;28;20387;-79
2022/10/20 01:02:56;;;;;;;7.20;1.70;;;8.70;99.90;;;;;;4987289;28;20030;-80
2022/10/20 01:05:23;;;;;;;4.75;1.38;;;8.60;99.90;;;;;;4999683;28;20125;-80
2022/10/20 01:07:49;;;;;;;3.47;1.45;;;8.60;99.90;;;;;;5001587;28;20033;-79
2022/10/20 01:10:16;;;;;;;2.42;1.55;;;8.60;99.90;;;;;;4991854;28;20505;-79
2022/10/20 01:12:48;;;;;;;2.65;1.50;;;8.60;99.90;;;;;;4983267;28;20026;-79
2022/10/20 01:15:35;;;;;;;3.83;1.73;;;8.60;99.90;;;;;;4969329;28;20026;-79
2022/10/20 01:18:10;;;;;;;1.92;1.48;;;8.60;99.90;;;;;;4979941;28;20033;-79
2022/10/20 01:21:15;;;;;;;3.47;1.40;;;8.50;99.90;;;;;;4979725;28;20450;-78
2022/10/20 01:24:02;;;;;;;3.05;1.40;;;8.50;99.90;;;;;;4985474;28;20030;-80
2022/10/20 01:26:49;;;;;;;3.05;1.10;;;8.60;99.90;;;;;;4995051;28;20039;-79
2022/10/20 01:29:39;;;;;;;2.22;1.20;;;8.60;99.90;;;;;;4989516;28;20687;-80
2022/10/20 01:32:20;;;;;;;2.45;1.33;;;8.50;99.90;;;;;;4998443;28;20487;-81
2022/10/20 01:35:07;;;;;;;4.53;1.77;;;8.60;99.90;;;;;;4997129;28;20046;-80
2022/10/20 01:38:01;;;;;;;4.22;1.90;;;8.50;99.90;;;;;;4998600;28;20030;-78
2022/10/20 01:40:36;;;;;;;2.95;1.52;;;8.50;99.90;;;;;;4949815;28;20046;-77
2022/10/20 01:43:06;;;;;;;2.25;1.60;;;8.50;99.90;;;;;;4978860;28;20026;-80
2022/10/20 01:45:35;;;;;;;7.22;1.58;;;8.50;99.90;;;;;;4988616;28;20033;-78
2022/10/20 01:48:05;;;;;;;2.70;1.40;;;8.50;99.90;;;;;;4989710;28;20104;-79
2022/10/20 01:50:34;;;;;;;3.15;1.45;;;8.40;99.90;;;;;;4959941;28;20081;-78
2022/10/20 01:53:01;;;;;;;4.20;1.55;;;8.40;99.90;;;;;;5000740;28;20085;-78
2022/10/20 01:55:27;;;;;;;1.75;1.30;;;8.40;99.90;;;;;;4991824;28;20037;-79
2022/10/20 01:58:18;;;;;;;3.63;1.70;;;8.40;99.90;;;;;;4980432;28;20026;-78
2022/10/20 02:00:45;;;;;;;2.85;1.70;;;8.40;99.90;;;;;;5000609;28;20447;-80
2022/10/20 02:03:39;;;;;;;9.23;1.80;;;8.40;99.90;;;;;;4993745;28;20026;-78
2022/10/20 02:06:30;;;;;;;3.63;1.63;;;8.40;99.90;;;;;;4971463;28;20634;-78
2022/10/20 02:09:03;;;;;;;2.95;1.83;;;8.30;99.90;;;;;;4983247;28;20033;-78
2022/10/20 02:11:49;;;;;;;1.83;1.25;;;8.30;99.90;;;;;;4995144;28;20089;-80
2022/10/20 02:14:20;;;;;;;4.78;1.75;;;8.30;99.90;;;;;;4978031;28;20038;-77
2022/10/20 02:16:50;;;;;;;1.88;1.30;;;8.30;99.90;;;;;;4977400;28;20029;-78
2022/10/20 02:19:23;;;;;;;3.45;1.50;;;8.20;99.90;;;;;;4992298;28;20072;-79
2022/10/20 02:21:51;;;;;;;2.83;1.65;;;8.20;99.90;;;;;;4987062;28;20046;-78
2022/10/20 02:24:22;;;;;;;3.38;1.80;;;8.20;99.90;;;;;;4990108;28;20463;-78
2022/10/20 02:26:50;;;;;;;7.00;2.38;;;8.20;99.90;;;;;;4996424;28;20056;-78
2022/10/20 02:29:24;;;;;;;3.05;1.60;;;8.20;99.90;;;;;;4994366;28;20498;-77
2022/10/20 02:31:50;;;;;;;4.50;1.77;;;8.10;99.90;;;;;;4983377;28;20034;-78
2022/10/20 02:34:17;;;;;;;4.55;1.75;;;8.10;99.90;;;;;;4960472;28;20042;-79
2022/10/20 02:36:43;;;;;;;4.32;1.50;;;8.10;99.90;;;;;;4994159;28;20030;-78
2022/10/20 02:39:10;;;;;;;4.05;2.13;;;8.10;99.90;;;;;;4970645;28;20162;-78
2022/10/20 02:41:37;;;;;;;2.83;1.40;;;8.10;99.90;;;;;;4988777;28;20105;-79
2022/10/20 02:44:03;;;;;;;3.45;1.55;;;8.10;99.90;;;;;;4975589;28;20034;-79
2022/10/20 02:46:30;;;;;;;3.53;2.22;;;8.10;99.90;;;;;;4994839;28;20639;-76
2022/10/20 02:48:56;;;;;;;3.90;1.42;;;8.00;99.90;;;;;;4989010;28;20526;-77
2022/10/20 02:51:21;;;;;;;2.60;1.52;;;8.00;99.90;;;;;;4992692;28;20100;-78
2022/10/20 02:53:48;;;;;;;2.42;1.70;;;8.00;99.90;;;;;;4974630;28;20399;-78
2022/10/20 02:56:14;;;;;;;4.00;1.80;;;8.00;99.90;;;;;;4990779;28;20691;-78
2022/10/20 02:58:41;;;;;;;3.85;1.85;;;8.00;99.90;;;;;;4985550;28;20034;-78
2022/10/20 03:01:06;;;;;;;5.10;1.80;;;8.00;99.90;;;;;;4975911;28;20030;-77
2022/10/20 03:03:32;;;;;;;3.38;1.70;;;8.00;99.90;;;;;;4994618;28;20100;-77
2022/10/20 03:06:05;;;;;;;3.90;1.58;;;8.00;99.90;;;;;;4973264;28;20031;-77
2022/10/20 03:08:32;;;;;;;2.75;1.80;;;8.00;99.90;;;;;;4973338;28;20094;-78
2022/10/20 03:10:58;;;;;;;6.90;2.42;;;8.00;99.90;;;;;;4959944;28;20042;-78
2022/10/20 03:13:25;;;;;;;5.28;1.90;;;7.90;99.90;;;;;;4978658;28;20121;-78
2022/10/20 03:15:51;;;;;;;3.47;1.45;;;7.90;99.90;;;;;;4978488;28;20036;-79
2022/10/20 03:18:19;;;;;;;5.03;2.25;;;7.90;99.90;;;;;;4979528;28;20026;-79
2022/10/20 03:20:45;;;;;;;4.70;1.98;;;7.90;99.90;;;;;;4995468;28;20027;-79
2022/10/20 03:23:13;;;;;;;5.60;1.90;;;7.90;99.90;;;;;;4966054;28;20030;-80
2022/10/20 03:25:38;;;;;;;4.85;1.70;;;7.90;99.90;;;;;;4986202;28;20049;-79
2022/10/20 03:28:04;;;;;;;5.07;2.00;;;7.90;99.90;;;;;;4982404;28;20030;-79
2022/10/20 03:30:32;;;;;;;4.85;1.92;;;7.90;99.90;;;;;;4971105;28;20042;-79
2022/10/20 03:32:57;;;;;;;4.88;1.90;;;7.90;99.90;;;;;;4997282;28;20110;-78
2022/10/20 03:35:24;;;;;;;3.72;1.70;;;7.90;99.90;;;;;;4972109;28;20121;-79
2022/10/20 03:37:50;;;;;;;2.95;2.05;;;7.80;99.90;;;;;;4964166;28;20057;-79
2022/10/20 03:40:16;;;;;;;7.22;1.90;;;7.80;99.90;;;;;;4973023;28;20026;-77
2022/10/20 03:42:42;;;;;;;2.65;1.88;;;7.80;99.90;;;;;;4994101;28;20034;-79
2022/10/20 03:45:08;;;;;;;3.47;2.05;;;7.70;99.90;;;;;;4960028;28;20031;-79
2022/10/20 03:47:37;;;;;;;10.18;3.10;;;7.70;99.90;;;;;;4992778;28;20030;-80
2022/10/20 03:50:07;;;;;;;3.83;2.15;;;7.70;99.90;;;;;;4971997;28;20031;-80
2022/10/20 03:52:33;;;;;;;3.30;2.20;;;7.70;99.90;;;;;;4989391;28;20494;-80
2022/10/20 03:55:00;;;;;;;5.25;2.30;;;7.60;99.90;;;;;;4989237;28;20046;-78
2022/10/20 03:57:26;;;;;;;3.42;2.03;;;7.60;99.90;;;;;;4991421;28;20026;-79
2022/10/20 03:59:52;;;;;;;2.70;1.90;;;7.60;99.90;;;;;;4970892;28;20030;-78
2022/10/20 04:02:48;;;;;;;3.88;2.40;;;7.60;99.90;;;;;;4975140;28;20045;-79
2022/10/20 04:05:17;;;;;;;3.05;1.90;;;7.60;99.90;;;;;;4913912;29;20584;-79
2022/10/20 04:07:44;;;;;;;7.45;1.80;;;7.50;99.90;;;;;;4930670;29;20081;-79
2022/10/20 04:10:11;;;;;;;4.88;2.00;;;7.50;99.90;;;;;;4931266;29;20050;-80
2022/10/20 04:12:38;;;;;;;4.30;1.80;;;7.50;99.90;;;;;;4933704;28;20035;-79
2022/10/20 04:15:05;;;;;;;3.08;1.65;;;7.50;99.90;;;;;;4933646;28;20040;-79
2022/10/20 04:17:32;;;;;;;5.05;2.65;;;7.50;99.90;;;;;;4932405;29;20043;-79
2022/10/20 04:20:02;;;;;;;5.25;2.00;;;7.50;99.90;;;;;;4913221;29;20096;-78
2022/10/20 04:22:30;;;;;;;3.65;2.20;;;7.50;99.90;;;;;;4929748;29;20079;-79
2022/10/20 04:24:56;;;;;;;5.68;2.28;;;7.50;99.90;;;;;;4918492;29;20504;-78
2022/10/20 04:27:21;;;;;;;4.10;2.25;;;7.50;99.90;;;;;;4933362;29;20035;-79
2022/10/20 04:29:49;;;;;;;4.25;2.20;;;7.50;99.90;;;;;;4934444;29;20050;-79
2022/10/20 04:32:17;;;;;;;3.78;2.10;;;7.40;99.90;;;;;;4910784;29;20032;-78
2022/10/20 04:34:45;;;;;;;3.22;2.03;;;7.40;99.90;;;;;;4926742;29;20038;-78
2022/10/20 04:37:12;;;;;;;5.82;2.05;;;7.40;99.90;;;;;;4931269;29;20034;-79
2022/10/20 04:39:42;;;;;;;3.92;2.20;;;7.40;99.90;;;;;;4915640;29;20024;-78
2022/10/20 04:42:08;;;;;;;3.78;1.98;;;7.40;99.90;;;;;;4957731;28;20046;-78
2022/10/20 04:44:34;;;;;;;5.75;2.63;;;7.40;99.90;;;;;;4988044;28;20073;-79
2022/10/20 04:47:00;;;;;;;5.95;2.50;;;7.40;99.90;;;;;;4975927;28;20026;-80
2022/10/20 04:49:27;;;;;;;4.10;2.55;;;7.40;99.90;;;;;;4977085;28;20351;-78
2022/10/20 04:51:53;;;;;;;7.22;3.45;;;7.40;99.90;;;;;;4990888;28;20026;-80
2022/10/20 04:54:20;;;;;;;6.28;2.50;;;7.40;99.90;;;;;;4972233;28;20049;-80
2022/10/20 04:56:47;;;;;;;7.97;2.95;;;7.40;99.90;;;;;;4977829;28;20030;-79
2022/10/20 04:59:14;;;;;;;7.70;2.65;;;7.30;99.90;;;;;;4979243;28;20030;-80
2022/10/20 05:01:39;;;;;;;7.97;3.05;;;7.30;99.90;;;;;;4993946;28;20037;-79
2022/10/20 05:04:06;;;;;;;7.30;2.83;;;7.30;99.90;;;;;;4995339;28;20494;-80
2022/10/20 05:06:32;;;;;;;6.20;3.13;;;7.30;99.90;;;;;;4995041;28;20027;-78
2022/10/20 05:09:04;;;;;;;7.28;3.00;;;7.30;99.90;;;;;;4991194;28;20026;-80
2022/10/20 05:11:34;;;;;;;5.90;3.00;;;7.30;99.90;;;;;;4995946;28;20160;-79
2022/10/20 05:14:00;;;;;;;4.13;2.55;;;7.30;99.90;;;;;;4995637;28;20415;-80
2022/10/20 05:16:26;;;;;;;6.38;2.83;;;7.30;99.90;;;;;;4995377;28;20136;-80
2022/10/20 05:18:52;;;;;;;6.68;3.33;;;7.30;99.90;;;;;;4984459;28;20022;-80
2022/10/20 05:21:21;;;;;;;7.45;3.75;;;7.30;99.90;;;;;;5005165;28;20030;-82
2022/10/20 05:23:47;;;;;;;5.68;3.10;;;7.30;99.90;;;;;;5001865;28;20339;-81
2022/10/20 05:26:15;;;;;;;5.25;3.08;;;7.30;99.90;;;;;;4996226;28;20030;-79
2022/10/20 05:28:49;;;;;;;7.10;3.10;;;7.20;99.90;;;;;;4979289;28;20096;-78
2022/10/20 05:31:16;;;;;;;9.38;3.42;;;7.20;99.90;;;;;;4989538;28;20031;-79
2022/10/20 05:33:48;;;;;;;5.22;2.65;;;7.20;99.90;;;;;;4993434;28;20483;-83
2022/10/20 05:36:16;;;;;;;4.53;2.58;;;7.20;99.90;;;;;;4963785;28;20129;-80
2022/10/20 05:38:43;;;;;;;4.97;2.95;;;7.20;99.90;;;;;;4979846;28;20465;-79
2022/10/20 05:41:11;;;;;;;4.22;2.63;;;7.20;99.90;;;;;;4993014;28;20030;-79
2022/10/20 05:43:38;;;;;;;7.07;2.90;;;7.20;99.90;;;;;;4983895;28;20546;-79
2022/10/20 05:46:05;;;;;;;6.72;2.78;;;7.10;99.90;;;;;;4992922;28;20394;-79
2022/10/20 05:48:32;;;;;;;11.23;3.45;;;7.10;99.90;;;;;;4997482;28;20038;-78
2022/10/20 05:51:12;;;;;;;6.38;3.03;;;7.10;99.90;;;;;;4992999;28;20113;-78
2022/10/20 05:53:40;;;;;;;6.55;2.45;;;7.10;99.90;;;;;;4990291;28;20160;-78
2022/10/20 05:56:07;;;;;;;5.60;2.92;;;7.10;99.90;;;;;;4992004;28;20505;-79
2022/10/20 05:58:33;;;;;;;6.07;2.78;;;7.10;99.90;;;;;;5002464;28;20033;-78
2022/10/20 06:01:09;;;;;;;6.32;2.90;;;7.10;99.90;;;;;;4986523;28;20030;-78
2022/10/20 06:03:37;;;;;;;4.45;2.83;;;7.10;99.90;;;;;;4966337;28;20026;-79
2022/10/20 06:06:04;;;;;;;4.60;3.10;;;8.80;99.90;;;;;;4992608;28;20026;-77
2022/10/20 06:08:33;;;;;;;10.57;2.92;;;8.20;99.90;;;;;;4973845;28;20522;-79
2022/10/20 06:11:05;;;;;;;7.28;3.22;;;7.80;99.90;;;;;;4997886;28;20093;-78
2022/10/20 06:13:32;;;;;;;6.82;3.05;;;7.60;99.90;;;;;;4990909;28;20030;-78
2022/10/20 06:16:09;;;;;;;6.57;3.17;;;7.40;99.90;;;;;;4980077;28;20022;-78
2022/10/20 06:18:39;;;;;;;5.38;2.92;;;7.30;99.90;;;;;;4957405;28;20116;-77
2022/10/20 06:21:09;;;;;;;7.55;3.38;;;7.30;99.90;;;;;;4995469;28;20030;-78
2022/10/20 06:23:34;;;;;;;7.25;3.67;;;7.30;99.90;;;;;;4992537;28;20018;-78
2022/10/20 06:26:12;;;;;;;5.85;2.97;;;7.30;99.90;;;;;;4998384;28;20054;-78
2022/10/20 06:28:40;;;;;;;8.75;3.40;;;7.30;99.90;;;;;;4987979;28;20037;-77
2022/10/20 06:31:13;;;;;;;7.63;3.97;;;7.30;99.90;;;;;;4967694;28;20073;-78
2022/10/20 06:33:39;;;;;;;5.50;3.33;;;7.30;99.90;;;;;;4986356;28;20431;-77
2022/10/20 06:36:05;;;;;;;7.28;3.38;;;7.30;99.90;;;;;;4990228;28;20121;-77
2022/10/20 06:38:32;;;;;;;8.60;3.42;;;7.30;99.90;;;;;;4989027;28;20033;-78
2022/10/20 06:41:05;;;;;;;10.38;3.45;;;7.40;99.90;;;;;;4997538;28;20018;-79
2022/10/20 06:43:31;;;;;;;8.35;3.80;;;7.40;99.90;;;;;;4994410;28;20027;-78
2022/10/20 06:45:59;;;;;;;6.28;3.10;;;7.40;99.90;;;;;;4976351;28;20037;-78
2022/10/20 06:48:26;;;;;;;11.77;4.50;;;7.50;99.90;;;;;;4986087;28;20029;-80
2022/10/20 06:51:00;;;;;;;8.07;3.85;;;7.50;99.90;;;;;;4977237;28;20120;-79
2022/10/20 06:53:28;;;;;;;8.52;4.47;;;7.50;99.90;;;;;;4977862;28;20092;-79
2022/10/20 06:55:56;;;;;;;8.95;3.90;;;7.50;99.90;;;;;;4990799;28;20030;-80
2022/10/20 06:58:22;;;;;;;7.00;4.00;;;7.50;99.90;;;;;;4979329;28;20022;-78
2022/10/20 07:01:01;;;;;;;11.43;4.30;;;7.50;99.90;;;;;;4996383;28;20561;-79
2022/10/20 07:03:29;;;;;;;9.73;3.30;;;7.60;99.90;;;;;;4985943;28;20086;-79
2022/10/20 07:05:55;;;;;;;8.20;4.10;;;7.60;99.90;;;;;;4986272;28;20026;-78
2022/10/20 07:08:22;;;;;;;11.18;4.57;;;7.60;99.90;;;;;;4990188;28;20038;-78
2022/10/20 07:10:57;;;;;;;11.23;3.60;;;7.70;99.90;;;;;;4966611;28;20026;-77
2022/10/20 07:13:23;;;;;;;7.57;4.18;;;7.70;99.90;;;;;;4984955;28;20065;-78
2022/10/20 07:15:51;;;;;;;9.88;4.03;;;7.80;99.90;;;;;;4993240;28;20061;-78
2022/10/20 07:18:16;;;;;;;8.68;3.58;;;7.80;99.90;;;;;;4967873;28;20082;-78
2022/10/20 07:20:42;;;;;;;7.45;3.13;;;7.90;99.90;;;;;;4995473;28;20053;-81
2022/10/20 07:23:09;;;;;;;6.03;3.72;;;7.90;99.90;;;;;;4966927;28;20033;-79
2022/10/20 07:25:35;;;;;;;9.68;3.80;;;8.00;99.90;;;;;;4986753;28;20034;-79
2022/10/20 07:28:01;;;;;;;7.65;3.55;;;8.00;99.90;;;;;;4983842;28;20049;-79
2022/10/20 07:30:27;;;;;;;7.53;3.85;;;8.00;99.90;;;;;;4978639;28;20423;-79
2022/10/20 07:32:52;;;;;;;7.82;3.35;;;8.10;99.90;;;;;;4964008;28;20035;-77
2022/10/20 07:35:18;;;;;;;10.73;3.50;;;8.10;99.90;;;;;;4976981;28;20512;-79
2022/10/20 07:37:44;;;;;;;5.90;3.28;;;8.10;99.90;;;;;;4967699;28;20030;-79
2022/10/20 07:40:10;;;;;;;6.45;3.38;;;8.10;99.90;;;;;;4986195;28;20045;-79
2022/10/20 07:42:36;;;;;;;7.13;4.13;;;8.20;99.90;;;;;;4965258;28;20027;-77
2022/10/20 07:45:01;;;;;;;7.35;3.17;;;8.20;99.90;;;;;;4995899;28;20061;-83
2022/10/20 07:47:27;;;;;;;7.65;4.00;;;8.20;99.90;;;;;;4987742;28;20406;-78
2022/10/20 07:49:53;;;;;;;5.75;3.65;;;8.30;99.90;;;;;;4972285;28;20478;-79
2022/10/20 07:52:19;;;;;;;7.32;3.60;;;8.30;99.90;;;;;;4990059;28;20113;-79
2022/10/20 07:54:44;;;;;;;6.07;3.50;;;8.30;99.90;;;;;;4963934;28;20123;-79
2022/10/20 07:57:10;;;;;;;5.72;2.78;;;8.40;99.90;;;;;;4984152;28;20026;-82
2022/10/20 07:59:36;;;;;;;9.88;3.17;;;8.50;99.90;;;;;;4997836;28;20033;-78
2022/10/20 08:02:02;;;;;;;9.80;3.63;;;8.50;99.90;;;;;;4975895;28;20450;-80
2022/10/20 08:04:30;;;;;;;7.82;3.53;;;8.50;99.90;;;;;;4991507;28;20026;-79
2022/10/20 08:06:57;;;;;;;7.10;3.38;;;8.60;99.90;;;;;;4974289;28;20039;-79
2022/10/20 08:09:22;;;;;;;7.07;3.22;;;8.70;99.90;;;;;;4972043;28;20397;-79
2022/10/20 08:11:48;;;;;;;5.93;3.00;;;8.70;99.90;;;;;;4979323;28;20233;-80
2022/10/20 08:14:14;;;;;;;5.13;2.90;;;8.80;99.90;;;;;;4995689;28;20030;-79
2022/10/20 08:16:39;;;;;;;6.13;3.03;;;8.80;99.90;;;;;;5003691;28;20061;-80
2022/10/20 08:19:05;;;;;;;6.85;2.60;;;8.90;99.90;;;;;;4977490;28;20030;-78
2022/10/20 08:21:31;;;;;;;9.38;2.78;;;8.90;99.90;;;;;;4991921;28;20041;-79
2022/10/20 08:23:57;;;;;;;6.38;2.95;;;9.00;99.90;;;;;;4992320;28;20029;-79
2022/10/20 08:26:25;;;;;;;5.28;2.58;;;9.00;99.90;;;;;;4970662;28;20042;-79
2022/10/20 08:28:53;;;;;;;6.88;3.00;;;9.00;99.90;;;;;;4994572;28;20026;-79
2022/10/20 08:31:19;;;;;;;9.23;2.83;;;9.10;99.90;;;;;;4976326;28;20037;-78
2022/10/20 08:33:45;;;;;;;5.97;3.33;;;9.10;99.90;;;;;;4979569;28;20077;-79
2022/10/20 08:36:12;;;;;;;6.38;2.80;;;9.10;99.90;;;;;;4974169;28;20026;-78
2022/10/20 08:38:39;;;;;;;6.60;3.13;;;9.10;99.90;;;;;;4996504;28;20034;-79
2022/10/20 08:41:21;;;;;;;5.75;2.95;;;9.10;99.90;;;;;;4997786;28;20534;-79
2022/10/20 08:43:47;;;;;;;;;;;9.10;99.90;;;;;;4992312;28;20517;-78
2022/10/20 08:46:16;;;;;;;5.50;2.80;;;9.10;99.90;;;;;;4983459;28;19916;-78
2022/10/20 08:48:43;;;;;;;4.28;2.55;;;9.10;99.90;;;;;;4988842;28;20117;-78
2022/10/20 08:51:23;;;;;;;4.88;2.72;;;9.20;99.90;;;;;;4990602;28;20030;-77
2022/10/20 08:53:52;;;;;;;5.47;2.60;;;9.20;99.90;;;;;;5004311;28;20022;-79
2022/10/20 08:56:27;;;;;;;6.78;2.80;;;9.20;99.90;;;;;;4979382;28;20026;-77
2022/10/20 08:58:53;;;;;;;8.65;3.10;;;9.30;99.90;;;;;;5001996;28;20046;-80
2022/10/20 09:01:25;;;;;;;8.77;2.95;;;9.30;99.90;;;;;;4980831;28;20500;-79
2022/10/20 09:03:56;;;;;;;5.65;2.92;;;9.30;99.90;;;;;;4991975;28;20033;-79
2022/10/20 09:06:22;;;;;;;5.55;2.55;;;9.30;99.90;;;;;;4995025;28;20041;-78
2022/10/20 09:08:48;;;;;;;5.85;3.10;;;9.30;99.90;;;;;;4993764;28;20039;-77
2022/10/20 09:11:26;;;;;;;5.82;2.83;;;9.40;99.90;;;;;;4988815;28;21495;-77
2022/10/20 09:13:53;;;;;;;5.43;2.65;;;9.40;99.90;;;;;;5001567;28;20030;-77
2022/10/20 09:16:30;;;;;;;7.70;2.95;;;9.50;99.90;;;;;;5001700;28;20042;-77
2022/10/20 09:18:59;;;;;;;4.68;2.30;;;9.50;99.90;;;;;;4985214;28;20014;-78
2022/10/20 09:21:26;;;;;;;6.10;2.95;;;9.60;99.90;;;;;;4995309;28;20470;-79
2022/10/20 09:23:59;;;;;;;7.30;2.75;;;9.60;99.90;;;;;;4992497;28;20030;-79
2022/10/20 09:26:39;;;;;;;5.13;2.80;;;9.60;99.90;;;;;;4981088;28;20045;-77
2022/10/20 09:29:07;;;;;;;5.47;2.50;;;9.60;99.90;;;;;;4986837;28;20563;-78
2022/10/20 09:31:36;;;;;;;6.28;2.65;;;9.60;99.90;;;;;;4994694;28;20026;-77
2022/10/20 09:34:23;;;;;;;5.72;2.53;;;9.60;99.90;;;;;;5005246;28;20049;-78
2022/10/20 09:36:52;;;;;;;3.90;2.30;;;9.60;99.90;;;;;;4977677;28;20044;-78
2022/10/20 09:39:30;;;;;;;7.13;2.65;;;9.60;99.90;;;;;;4970209;28;20109;-79
2022/10/20 09:42:17;;;;;;;5.57;2.47;;;9.60;99.90;;;;;;4958576;28;20030;-79
2022/10/20 09:44:51;;;;;;;4.68;2.13;;;9.70;99.90;;;;;;4973579;28;20026;-78
2022/10/20 09:47:17;;;;;;;6.75;2.60;;;9.80;99.90;;;;;;4976602;28;20069;-80
2022/10/20 09:49:44;;;;;;;6.90;2.85;;;9.80;99.90;;;;;;4998987;28;20034;-79
2022/10/20 09:52:33;;;;;;;6.85;2.92;;;9.90;99.90;;;;;;4993410;28;20054;-78
2022/10/20 09:55:01;;;;;;;5.38;2.45;;;10.20;99.90;;;;;;4987759;28;20410;-77
2022/10/20 09:57:28;;;;;;;9.05;3.53;;;10.70;99.90;;;;;;5002978;28;20029;-79
2022/10/20 09:59:55;;;;;;;6.05;2.60;;;11.30;99.90;;;;;;4990265;28;20042;-79
2022/10/20 10:02:22;;;;;;;5.32;2.38;;;12.10;99.90;;;;;;4981837;28;20117;-78
2022/10/20 10:04:50;;;;;;;3.03;2.17;;;12.80;99.90;;;;;;4990788;28;20062;-79
2022/10/20 10:07:25;;;;;;;4.82;2.47;;;13.40;99.90;;;;;;4975381;28;20097;-80
2022/10/20 10:10:24;;;;;;;5.13;2.05;;;13.80;99.90;;;;;;4984190;28;20041;-78
2022/10/20 10:12:55;;;;;;;6.28;2.70;;;14.30;99.90;;;;;;4973489;28;20062;-78
2022/10/20 10:15:28;;;;;;;4.05;2.22;;;14.50;99.90;;;;;;4976770;28;20120;-79
2022/10/20 10:17:55;;;;;;;4.07;2.20;;;14.30;99.90;;;;;;4976701;28;20434;-79
2022/10/20 10:20:38;;;;;;;7.25;2.70;;;13.90;99.90;;;;;;4980727;28;20092;-79
2022/10/20 10:23:23;;;;;;;5.45;2.08;;;13.70;99.90;;;;;;4991400;28;20101;-78
2022/10/20 10:25:51;;;;;;;4.78;2.30;;;13.90;99.90;;;;;;4993797;28;20034;-79
2022/10/20 10:28:32;;;;;;;6.25;2.72;;;14.20;99.90;;;;;;4977880;28;20042;-78
2022/10/20 10:31:16;;;;;;;;;;;13.60;99.90;;;;;;5008057;28;20027;-79
2022/10/20 10:33:41;;;;;;;6.00;2.28;;;13.10;99.90;;;;;;4992957;28;19973;-79
2022/10/20 10:36:35;;;;;;;10.68;2.42;;;13.00;99.90;;;;;;4990686;28;20125;-79
2022/10/20 10:39:05;;;;;;;4.28;2.42;;;13.20;99.90;;;;;;4970470;28;20034;-78
2022/10/20 10:41:55;;;;;;;4.60;2.30;;;13.20;99.90;;;;;;4992748;28;20086;-77
2022/10/20 10:44:40;;;;;;;5.78;2.50;;;13.20;99.90;;;;;;4999166;28;20030;-78
2022/10/20 10:47:46;;;;;;;5.53;2.88;;;13.60;99.90;;;;;;4970484;28;20026;-77
2022/10/20 10:50:25;;;;;;;4.93;2.60;;;13.60;99.90;;;;;;4993109;28;20055;-77
2022/10/20 10:53:06;;;;;;;4.32;2.15;;;13.90;99.90;;;;;;4974343;28;20034;-78
2022/10/20 10:55:53;;;;;;;4.28;2.28;;;13.70;99.90;;;;;;4997055;28;20513;-79
2022/10/20 10:58:41;;;;;;;4.40;2.80;;;13.30;99.90;;;;;;4973625;28;20061;-78
2022/10/20 11:01:48;;;;;;;4.50;2.53;;;12.80;99.90;;;;;;4955124;28;20596;-80
2022/10/20 11:04:47;;;;;;;5.22;2.50;;;12.40;99.90;;;;;;4965387;28;20045;-80
2022/10/20 11:07:38;;;;;;;5.72;2.45;;;12.30;99.90;;;;;;4987210;28;20030;-78
2022/10/20 11:10:20;;;;;;;7.28;2.80;;;12.10;99.90;;;;;;4991079;28;20021;-82
2022/10/20 11:12:55;;;;;;;4.57;2.80;;;12.00;99.90;;;;;;4968726;28;20482;-79
2022/10/20 11:15:43;;;;;;;5.10;3.20;;;12.00;99.90;;;;;;4995188;28;20022;-78
2022/10/20 11:18:30;;;;;;;4.68;2.80;;;11.90;99.90;;;;;;4993166;28;20023;-78
2022/10/20 11:21:10;;;;;;;5.03;2.70;;;11.90;99.90;;;;;;4976430;28;20684;-78
2022/10/20 11:23:44;;;;;;;4.72;2.78;;;11.90;99.90;;;;;;4992601;28;20031;-82
2022/10/20 11:26:21;;;;;;;9.10;3.95;;;11.80;99.90;;;;;;4991362;28;20828;-82
2022/10/20 11:28:55;;;;;;;7.05;3.13;;;11.70;99.90;;;;;;4959433;28;20036;-79
2022/10/20 11:31:27;;;;;;;5.45;3.20;;;11.80;99.90;;;;;;4988990;28;20108;-79
2022/10/20 11:34:18;;;;;;;4.53;3.13;;;11.80;99.90;;;;;;4998306;28;20026;-78
2022/10/20 11:36:51;;;;;;;6.40;2.80;;;11.80;99.90;;;;;;4989687;28;20100;-79
2022/10/20 11:39:41;;;;;;;5.63;3.30;;;11.90;99.90;;;;;;4976417;28;20026;-78
2022/10/20 11:42:43;;;;;;;8.18;3.50;;;11.80;99.90;;;;;;4989382;28;20078;-80
2022/10/20 11:45:44;;;;;;;5.60;2.92;;;11.80;99.90;;;;;;4995740;28;20050;-78
2022/10/20 11:48:25;;;;;;;7.35;3.50;;;11.80;99.90;;;;;;4954186;28;20046;-81
2022/10/20 11:51:04;;;;;;;7.40;3.60;;;11.80;99.90;;;;;;4976524;28;20045;-80
2022/10/20 11:53:42;;;;;;;7.40;3.10;;;11.80;99.90;;;;;;4996606;28;20285;-78
2022/10/20 11:56:24;;;;;;;5.72;3.10;;;11.80;99.90;;;;;;4992057;28;20049;-80
2022/10/20 11:59:02;;;;;;;8.18;3.30;;;11.80;99.90;;;;;;4984209;28;20115;-79
2022/10/20 12:01:42;;;;;;;6.50;3.20;;;11.80;99.90;;;;;;4971604;28;20034;-81
2022/10/20 12:04:30;;;;;;;6.53;3.38;;;11.70;99.90;;;;;;4990283;28;20161;-78
2022/10/20 12:07:18;;;;;;;8.15;3.50;;;11.80;99.90;;;;;;4977051;28;20118;-80
2022/10/20 12:10:01;;;;;;;6.07;3.47;;;11.80;99.90;;;;;;4979555;28;20054;-78
2022/10/20 12:13:00;;;;;;;10.82;3.95;;;11.80;99.90;;;;;;4995756;28;20457;-78
2022/10/20 12:15:27;;;;;;;5.88;3.50;;;11.80;99.90;;;;;;4982080;28;20026;-78
2022/10/20 12:18:04;;;;;;;4.88;3.63;;;11.80;99.90;;;;;;4996374;28;20644;-81
2022/10/20 12:20:30;;;;;;;8.88;3.80;;;11.90;99.90;;;;;;4992425;28;20022;-77
2022/10/20 12:23:01;;;;;;;11.10;3.83;;;12.00;99.90;;;;;;4979863;28;20025;-77
2022/10/20 12:25:29;;;;;;;8.52;4.18;;;12.00;99.90;;;;;;4998635;28;20026;-77
2022/10/20 12:28:17;;;;;;;303.08;154.15;;;12.00;99.90;;;;;;4995930;28;20030;-78
2022/10/20 12:30:43;;;;;;;131.55;86.45;;;11.90;99.90;;;;;;4984545;28;20117;-77
2022/10/20 12:33:17;;;;;;;240.68;146.23;;;11.90;99.90;;;;;;4994489;28;20023;-79
2022/10/20 12:36:12;;;;;;;18.23;10.80;;;11.90;99.90;;;;;;4976698;28;20483;-78
2022/10/20 12:38:39;;;;;;;8.70;3.70;;;11.90;99.90;;;;;;4994215;28;20023;-78
2022/10/20 12:41:11;;;;;;;8.73;4.20;;;11.90;99.90;;;;;;4996649;28;20026;-78
2022/10/20 12:43:53;;;;;;;8.70;4.43;;;11.90;99.90;;;;;;4994451;28;20027;-78
2022/10/20 12:46:30;;;;;;;6.72;4.32;;;12.00;99.90;;;;;;5010042;28;20070;-76
2022/10/20 12:49:00;;;;;;;7.63;4.10;;;12.00;99.90;;;;;;4991544;28;20030;-76
2022/10/20 12:51:34;;;;;;;6.07;4.28;;;12.10;99.90;;;;;;4987951;28;20446;-79
2022/10/20 12:54:21;;;;;;;9.35;4.30;;;12.10;99.90;;;;;;4977080;28;20486;-78
2022/10/20 12:56:49;;;;;;;7.32;3.92;;;12.10;99.90;;;;;;4982446;28;20026;-77
2022/10/20 12:59:26;;;;;;;8.65;4.13;;;12.10;99.90;;;;;;4960555;28;20076;-78
2022/10/20 13:02:18;;;;;;;10.30;4.95;;;12.20;99.90;;;;;;4975038;28;20065;-79
2022/10/20 13:05:05;;;;;;;7.18;4.35;;;12.20;99.90;;;;;;4994446;28;20018;-79
2022/10/20 13:07:47;;;;;;;8.13;4.50;;;12.20;99.90;;;;;;4959408;28;20106;-79
2022/10/20 13:10:31;;;;;;;;;;;12.20;99.90;;;;;;4991455;28;20026;-78
2022/10/20 13:13:00;;;;;;;6.78;3.83;;;12.20;99.90;;;;;;4990448;28;20381;-80
2022/10/20 13:15:42;;;;;;;6.70;3.67;;;12.10;99.90;;;;;;4980532;28;20022;-79
2022/10/20 13:18:11;;;;;;;5.53;4.00;;;12.20;99.90;;;;;;4993872;28;20033;-78
2022/10/20 13:21:07;;;;;;;6.32;3.90;;;12.10;99.90;;;;;;4994451;28;20042;-80